Time;durP1;ratioP1;P1;durP2;ratioP2;P2;SDS_P1;SDS_P2;PMS_P1;PMS_P2;Temp;Humidity;BMP_temperature;BMP_pressure;BME280_temperature;BME280_humidity;BME280_pressure;Samples;Min_cycle;Max_cycle;Signal;HPM_P1;HPM_P2
2019/06/29 00:00:35;;;;;;;7.249999;5.950001;;;;;;;15.81;64.8418;95678.36;;;;
2019/06/29 00:01:36;;;;;;;7.249999;5.950001;;;;;;;15.81;64.8418;95678.36;;;;
2019/06/29 00:02:37;;;;;;;7;6.3;;;;;;;15.59;65.38574;95678.05;;;;
2019/06/29 00:03:38;;;;;;;7;6.3;;;;;;;15.59;65.38574;95678.05;;;;
2019/06/29 00:04:39;;;;;;;7;6.3;;;;;;;15.59;65.38574;95678.05;;;;
2019/06/29 00:05:41;;;;;;;7;6.3;;;;;;;15.59;65.38574;95678.05;;;;
2019/06/29 00:06:42;;;;;;;7;6.3;;;;;;;15.59;65.38574;95678.05;;;;
2019/06/29 00:07:43;;;;;;;7;6.3;;;;;;;15.59;65.38574;95678.05;;;;
2019/06/29 00:08:44;;;;;;;7;6.3;;;;;;;15.59;65.38574;95678.05;;;;
2019/06/29 00:09:45;;;;;;;7;6.3;;;;;;;15.59;65.38574;95678.05;;;;
2019/06/29 00:10:46;;;;;;;7;6.3;;;;;;;15.59;65.38574;95678.05;;;;
2019/06/29 00:11:47;;;;;;;7;6.3;;;;;;;15.59;65.38574;95678.05;;;;
2019/06/29 00:12:48;;;;;;;7;6.3;;;;;;;15.59;65.38574;95678.05;;;;
2019/06/29 00:13:49;;;;;;;7.6;5.85;;;;;;;15.5;66.01074;95668.81;;;;
2019/06/29 00:14:50;;;;;;;7.6;5.85;;;;;;;15.5;66.01074;95668.81;;;;
2019/06/29 00:15:52;;;;;;;7.6;5.85;;;;;;;15.5;66.01074;95668.81;;;;
2019/06/29 00:16:53;;;;;;;7.6;5.85;;;;;;;15.5;66.01074;95668.81;;;;
2019/06/29 00:17:54;;;;;;;7.6;5.85;;;;;;;15.5;66.01074;95668.81;;;;
2019/06/29 00:18:55;;;;;;;7.6;5.85;;;;;;;15.5;66.01074;95668.81;;;;
2019/06/29 00:19:56;;;;;;;7.6;5.85;;;;;;;15.5;66.01074;95668.81;;;;
2019/06/29 00:20:57;;;;;;;7.6;5.85;;;;;;;15.5;66.01074;95668.81;;;;
2019/06/29 00:21:58;;;;;;;7.6;5.85;;;;;;;15.5;66.01074;95668.81;;;;
2019/06/29 00:22:59;;;;;;;7.6;5.85;;;;;;;15.5;66.01074;95668.81;;;;
2019/06/29 00:24:00;;;;;;;7.85;6.55;;;;;;;15.28;66.4668;95668.83;;;;
2019/06/29 00:25:01;;;;;;;7.85;6.55;;;;;;;15.28;66.4668;95668.83;;;;
2019/06/29 00:26:03;;;;;;;7.85;6.55;;;;;;;15.28;66.4668;95668.83;;;;
2019/06/29 00:27:04;;;;;;;7.85;6.55;;;;;;;15.28;66.4668;95668.83;;;;
2019/06/29 00:28:05;;;;;;;7.85;6.55;;;;;;;15.28;66.4668;95668.83;;;;
2019/06/29 00:29:06;;;;;;;7.85;6.55;;;;;;;15.28;66.4668;95668.83;;;;
2019/06/29 00:30:07;;;;;;;7.85;6.55;;;;;;;15.28;66.4668;95668.83;;;;
2019/06/29 00:31:09;;;;;;;7.85;6.55;;;;;;;15.28;66.4668;95668.83;;;;
2019/06/29 00:32:10;;;;;;;7.85;6.55;;;;;;;15.28;66.4668;95668.83;;;;
2019/06/29 00:33:11;;;;;;;7.85;6.55;;;;;;;15.28;66.4668;95668.83;;;;
2019/06/29 00:34:12;;;;;;;7.2;6.45;;;;;;;15.09;67.13086;95667.53;;;;
2019/06/29 00:35:13;;;;;;;7.2;6.45;;;;;;;15.09;67.13086;95667.53;;;;
2019/06/29 00:36:14;;;;;;;7.2;6.45;;;;;;;15.09;67.13086;95667.53;;;;
2019/06/29 00:37:15;;;;;;;7.2;6.45;;;;;;;15.09;67.13086;95667.53;;;;
2019/06/29 00:38:17;;;;;;;7.2;6.45;;;;;;;15.09;67.13086;95667.53;;;;
2019/06/29 00:39:18;;;;;;;7.2;6.45;;;;;;;15.09;67.13086;95667.53;;;;
2019/06/29 00:40:19;;;;;;;7.2;6.45;;;;;;;15.09;67.13086;95667.53;;;;
2019/06/29 00:41:20;;;;;;;7.2;6.45;;;;;;;15.09;67.13086;95667.53;;;;
2019/06/29 00:42:21;;;;;;;7.2;6.45;;;;;;;15.09;67.13086;95667.53;;;;
2019/06/29 00:43:22;;;;;;;7.2;6.45;;;;;;;15.09;67.13086;95667.53;;;;
2019/06/29 00:44:23;;;;;;;7.2;6.45;;;;;;;15.09;67.13086;95667.53;;;;
2019/06/29 00:45:24;;;;;;;7.099999;6.450001;;;;;;;14.86;68.04785;95655.53;;;;
2019/06/29 00:46:25;;;;;;;7.099999;6.450001;;;;;;;14.86;68.04785;95655.53;;;;
2019/06/29 00:47:27;;;;;;;7.099999;6.450001;;;;;;;14.86;68.04785;95655.53;;;;
2019/06/29 00:48:28;;;;;;;7.099999;6.450001;;;;;;;14.86;68.04785;95655.53;;;;
2019/06/29 00:49:29;;;;;;;7.099999;6.450001;;;;;;;14.86;68.04785;95655.53;;;;
2019/06/29 00:50:30;;;;;;;7.099999;6.450001;;;;;;;14.86;68.04785;95655.53;;;;
2019/06/29 00:51:31;;;;;;;7.099999;6.450001;;;;;;;14.86;68.04785;95655.53;;;;
2019/06/29 00:52:32;;;;;;;7.099999;6.450001;;;;;;;14.86;68.04785;95655.53;;;;
2019/06/29 00:53:33;;;;;;;7.099999;6.450001;;;;;;;14.86;68.04785;95655.53;;;;
2019/06/29 00:54:34;;;;;;;7.099999;6.450001;;;;;;;14.86;68.04785;95655.53;;;;
2019/06/29 00:55:35;;;;;;;7.45;6.349999;;;;;;;14.71;69.03223;95655.36;;;;
2019/06/29 00:56:36;;;;;;;7.45;6.349999;;;;;;;14.71;69.03223;95655.36;;;;
2019/06/29 00:57:38;;;;;;;7.45;6.349999;;;;;;;14.71;69.03223;95655.36;;;;
2019/06/29 00:58:39;;;;;;;7.45;6.349999;;;;;;;14.71;69.03223;95655.36;;;;
2019/06/29 00:59:40;;;;;;;7.45;6.349999;;;;;;;14.71;69.03223;95655.36;;;;
2019/06/29 01:00:41;;;;;;;7.45;6.349999;;;;;;;14.71;69.03223;95655.36;;;;
2019/06/29 01:01:42;;;;;;;7.45;6.349999;;;;;;;14.71;69.03223;95655.36;;;;
2019/06/29 01:02:43;;;;;;;7.45;6.349999;;;;;;;14.71;69.03223;95655.36;;;;
2019/06/29 01:03:45;;;;;;;7.45;6.349999;;;;;;;14.71;69.03223;95655.36;;;;
2019/06/29 01:04:46;;;;;;;7.45;6.349999;;;;;;;14.71;69.03223;95655.36;;;;
2019/06/29 01:05:47;;;;;;;7.45;6.349999;;;;;;;14.71;69.03223;95655.36;;;;
2019/06/29 01:06:48;;;;;;;6.4;5.799999;;;;;;;14.52;69.87891;95648.46;;;;
2019/06/29 01:07:50;;;;;;;6.4;5.799999;;;;;;;14.52;69.87891;95648.46;;;;
2019/06/29 01:08:51;;;;;;;6.4;5.799999;;;;;;;14.52;69.87891;95648.46;;;;
2019/06/29 01:09:52;;;;;;;6.4;5.799999;;;;;;;14.52;69.87891;95648.46;;;;
2019/06/29 01:10:53;;;;;;;6.4;5.799999;;;;;;;14.52;69.87891;95648.46;;;;
2019/06/29 01:11:54;;;;;;;6.4;5.799999;;;;;;;14.52;69.87891;95648.46;;;;
2019/06/29 01:12:55;;;;;;;6.4;5.799999;;;;;;;14.52;69.87891;95648.46;;;;
2019/06/29 01:13:56;;;;;;;6.4;5.799999;;;;;;;14.52;69.87891;95648.46;;;;
2019/06/29 01:14:58;;;;;;;6.4;5.799999;;;;;;;14.52;69.87891;95648.46;;;;
2019/06/29 01:15:59;;;;;;;6.4;5.799999;;;;;;;14.52;69.87891;95648.46;;;;
2019/06/29 01:17:00;;;;;;;7.5;5.849999;;;;;;;14.43;70.84766;95649.54;;;;
2019/06/29 01:18:01;;;;;;;7.5;5.849999;;;;;;;14.43;70.84766;95649.54;;;;
2019/06/29 01:19:03;;;;;;;7.5;5.849999;;;;;;;14.43;70.84766;95649.54;;;;
2019/06/29 01:20:04;;;;;;;7.5;5.849999;;;;;;;14.43;70.84766;95649.54;;;;
2019/06/29 01:21:07;;;;;;;7.5;5.849999;;;;;;;14.43;70.84766;95649.54;;;;
2019/06/29 01:22:08;;;;;;;7.5;5.849999;;;;;;;14.43;70.84766;95649.54;;;;
2019/06/29 01:23:09;;;;;;;7.5;5.849999;;;;;;;14.43;70.84766;95649.54;;;;
2019/06/29 01:24:10;;;;;;;7.5;5.849999;;;;;;;14.43;70.84766;95649.54;;;;
2019/06/29 01:25:11;;;;;;;7.5;5.849999;;;;;;;14.43;70.84766;95649.54;;;;
2019/06/29 01:26:13;;;;;;;7.5;5.849999;;;;;;;14.43;70.84766;95649.54;;;;
2019/06/29 01:27:15;;;;;;;6.849999;5.7;;;;;;;14.26;71.69531;95645.61;;;;
2019/06/29 01:28:16;;;;;;;6.849999;5.7;;;;;;;14.26;71.69531;95645.61;;;;
2019/06/29 01:29:17;;;;;;;6.849999;5.7;;;;;;;14.26;71.69531;95645.61;;;;
2019/06/29 01:30:18;;;;;;;6.849999;5.7;;;;;;;14.26;71.69531;95645.61;;;;
2019/06/29 01:31:32;;;;;;;6.849999;5.7;;;;;;;14.26;71.69531;95645.61;;;;
2019/06/29 01:32:33;;;;;;;6.849999;5.7;;;;;;;14.26;71.69531;95645.61;;;;
2019/06/29 01:33:34;;;;;;;6.849999;5.7;;;;;;;14.26;71.69531;95645.61;;;;
2019/06/29 01:34:35;;;;;;;6.849999;5.7;;;;;;;14.26;71.69531;95645.61;;;;
2019/06/29 01:35:37;;;;;;;6.849999;5.7;;;;;;;14.26;71.69531;95645.61;;;;
2019/06/29 01:36:38;;;;;;;6.849999;5.7;;;;;;;14.26;71.69531;95645.61;;;;
2019/06/29 01:37:39;;;;;;;6.849999;5.7;;;;;;;14.26;71.69531;95645.61;;;;
2019/06/29 01:38:40;;;;;;;7.7;6.149999;;;;;;;14.17;72.27539;95630.8;;;;
2019/06/29 01:39:42;;;;;;;7.7;6.149999;;;;;;;14.17;72.27539;95630.8;;;;
2019/06/29 01:40:43;;;;;;;7.7;6.149999;;;;;;;14.17;72.27539;95630.8;;;;
2019/06/29 01:41:44;;;;;;;7.7;6.149999;;;;;;;14.17;72.27539;95630.8;;;;
2019/06/29 01:42:45;;;;;;;7.7;6.149999;;;;;;;14.17;72.27539;95630.8;;;;
2019/06/29 01:43:46;;;;;;;7.7;6.149999;;;;;;;14.17;72.27539;95630.8;;;;
2019/06/29 01:44:47;;;;;;;7.7;6.149999;;;;;;;14.17;72.27539;95630.8;;;;
2019/06/29 01:45:48;;;;;;;7.7;6.149999;;;;;;;14.17;72.27539;95630.8;;;;
2019/06/29 01:46:49;;;;;;;7.7;6.149999;;;;;;;14.17;72.27539;95630.8;;;;
2019/06/29 01:47:51;;;;;;;7.7;6.149999;;;;;;;14.17;72.27539;95630.8;;;;
2019/06/29 01:48:52;;;;;;;6.4;5.35;;;;;;;14.04;73.11523;95628.85;;;;
2019/06/29 01:49:53;;;;;;;6.4;5.35;;;;;;;14.04;73.11523;95628.85;;;;
2019/06/29 01:50:54;;;;;;;6.4;5.35;;;;;;;14.04;73.11523;95628.85;;;;
2019/06/29 01:51:55;;;;;;;6.4;5.35;;;;;;;14.04;73.11523;95628.85;;;;
2019/06/29 01:52:56;;;;;;;6.4;5.35;;;;;;;14.04;73.11523;95628.85;;;;
2019/06/29 01:53:57;;;;;;;6.4;5.35;;;;;;;14.04;73.11523;95628.85;;;;
2019/06/29 01:54:59;;;;;;;6.4;5.35;;;;;;;14.04;73.11523;95628.85;;;;
2019/06/29 01:56:00;;;;;;;6.4;5.35;;;;;;;14.04;73.11523;95628.85;;;;
2019/06/29 01:57:01;;;;;;;6.4;5.35;;;;;;;14.04;73.11523;95628.85;;;;
2019/06/29 01:58:02;;;;;;;6.4;5.35;;;;;;;14.04;73.11523;95628.85;;;;
2019/06/29 01:59:03;;;;;;;7.050001;5.75;;;;;;;13.96;73.6748;95626.15;;;;
2019/06/29 02:00:05;;;;;;;7.050001;5.75;;;;;;;13.96;73.6748;95626.15;;;;
2019/06/29 02:01:07;;;;;;;7.050001;5.75;;;;;;;13.96;73.6748;95626.15;;;;
2019/06/29 02:02:08;;;;;;;7.050001;5.75;;;;;;;13.96;73.6748;95626.15;;;;
2019/06/29 02:03:10;;;;;;;7.050001;5.75;;;;;;;13.96;73.6748;95626.15;;;;
2019/06/29 02:04:11;;;;;;;7.050001;5.75;;;;;;;13.96;73.6748;95626.15;;;;
2019/06/29 02:05:12;;;;;;;7.050001;5.75;;;;;;;13.96;73.6748;95626.15;;;;
2019/06/29 02:06:13;;;;;;;7.050001;5.75;;;;;;;13.96;73.6748;95626.15;;;;
2019/06/29 02:07:14;;;;;;;7.050001;5.75;;;;;;;13.96;73.6748;95626.15;;;;
2019/06/29 02:08:16;;;;;;;7.050001;5.75;;;;;;;13.96;73.6748;95626.15;;;;
2019/06/29 02:09:17;;;;;;;7.050001;5.75;;;;;;;13.96;73.6748;95626.15;;;;
2019/06/29 02:10:18;;;;;;;6.95;6.15;;;;;;;13.78;74.18555;95632.64;;;;
2019/06/29 02:11:20;;;;;;;6.95;6.15;;;;;;;13.78;74.18555;95632.64;;;;
2019/06/29 02:12:21;;;;;;;6.95;6.15;;;;;;;13.78;74.18555;95632.64;;;;
2019/06/29 02:13:22;;;;;;;6.95;6.15;;;;;;;13.78;74.18555;95632.64;;;;
2019/06/29 02:14:23;;;;;;;6.95;6.15;;;;;;;13.78;74.18555;95632.64;;;;
2019/06/29 02:15:25;;;;;;;6.95;6.15;;;;;;;13.78;74.18555;95632.64;;;;
2019/06/29 02:16:26;;;;;;;6.95;6.15;;;;;;;13.78;74.18555;95632.64;;;;
2019/06/29 02:17:27;;;;;;;6.95;6.15;;;;;;;13.78;74.18555;95632.64;;;;
2019/06/29 02:18:28;;;;;;;6.95;6.15;;;;;;;13.78;74.18555;95632.64;;;;
2019/06/29 02:19:30;;;;;;;6.95;6.15;;;;;;;13.78;74.18555;95632.64;;;;
2019/06/29 02:20:31;;;;;;;7.7;6.400001;;;;;;;13.65;74.9375;95625.79;;;;
2019/06/29 02:21:32;;;;;;;7.7;6.400001;;;;;;;13.65;74.9375;95625.79;;;;
2019/06/29 02:22:33;;;;;;;7.7;6.400001;;;;;;;13.65;74.9375;95625.79;;;;
2019/06/29 02:23:35;;;;;;;7.7;6.400001;;;;;;;13.65;74.9375;95625.79;;;;
2019/06/29 02:24:36;;;;;;;7.7;6.400001;;;;;;;13.65;74.9375;95625.79;;;;
2019/06/29 02:25:37;;;;;;;7.7;6.400001;;;;;;;13.65;74.9375;95625.79;;;;
2019/06/29 02:26:38;;;;;;;7.7;6.400001;;;;;;;13.65;74.9375;95625.79;;;;
2019/06/29 02:27:39;;;;;;;7.7;6.400001;;;;;;;13.65;74.9375;95625.79;;;;
2019/06/29 02:28:40;;;;;;;7.7;6.400001;;;;;;;13.65;74.9375;95625.79;;;;
2019/06/29 02:29:42;;;;;;;7.7;6.400001;;;;;;;13.65;74.9375;95625.79;;;;
2019/06/29 02:30:43;;;;;;;7.7;6.400001;;;;;;;13.65;74.9375;95625.79;;;;
2019/06/29 02:31:44;;;;;;;7.75;6.149999;;;;;;;13.47;75.61914;95632.67;;;;
2019/06/29 02:32:45;;;;;;;7.75;6.149999;;;;;;;13.47;75.61914;95632.67;;;;
2019/06/29 02:33:46;;;;;;;7.75;6.149999;;;;;;;13.47;75.61914;95632.67;;;;
2019/06/29 02:34:47;;;;;;;7.75;6.149999;;;;;;;13.47;75.61914;95632.67;;;;
2019/06/29 02:35:49;;;;;;;7.75;6.149999;;;;;;;13.47;75.61914;95632.67;;;;
2019/06/29 02:36:50;;;;;;;7.75;6.149999;;;;;;;13.47;75.61914;95632.67;;;;
2019/06/29 02:37:51;;;;;;;7.75;6.149999;;;;;;;13.47;75.61914;95632.67;;;;
2019/06/29 02:38:52;;;;;;;7.75;6.149999;;;;;;;13.47;75.61914;95632.67;;;;
2019/06/29 02:39:53;;;;;;;7.75;6.149999;;;;;;;13.47;75.61914;95632.67;;;;
2019/06/29 02:40:54;;;;;;;7.75;6.149999;;;;;;;13.47;75.61914;95632.67;;;;
2019/06/29 02:41:55;;;;;;;6.650001;6.000001;;;;;;;13.37;76.19141;95631.25;;;;
2019/06/29 02:42:57;;;;;;;6.650001;6.000001;;;;;;;13.37;76.19141;95631.25;;;;
2019/06/29 02:43:58;;;;;;;6.650001;6.000001;;;;;;;13.37;76.19141;95631.25;;;;
2019/06/29 02:44:59;;;;;;;6.650001;6.000001;;;;;;;13.37;76.19141;95631.25;;;;
2019/06/29 02:46:01;;;;;;;6.650001;6.000001;;;;;;;13.37;76.19141;95631.25;;;;
2019/06/29 02:47:02;;;;;;;6.650001;6.000001;;;;;;;13.37;76.19141;95631.25;;;;
2019/06/29 02:48:03;;;;;;;6.650001;6.000001;;;;;;;13.37;76.19141;95631.25;;;;
2019/06/29 02:49:04;;;;;;;6.650001;6.000001;;;;;;;13.37;76.19141;95631.25;;;;
2019/06/29 02:50:05;;;;;;;6.650001;6.000001;;;;;;;13.37;76.19141;95631.25;;;;
2019/06/29 02:51:07;;;;;;;6.650001;6.000001;;;;;;;13.37;76.19141;95631.25;;;;
2019/06/29 02:52:09;;;;;;;6.5;5.45;;;;;;;13.22;76.70508;95636.28;;;;
2019/06/29 02:53:10;;;;;;;6.5;5.45;;;;;;;13.22;76.70508;95636.28;;;;
2019/06/29 02:54:11;;;;;;;6.5;5.45;;;;;;;13.22;76.70508;95636.28;;;;
2019/06/29 02:55:12;;;;;;;6.5;5.45;;;;;;;13.22;76.70508;95636.28;;;;
2019/06/29 02:56:14;;;;;;;6.5;5.45;;;;;;;13.22;76.70508;95636.28;;;;
2019/06/29 02:57:15;;;;;;;6.5;5.45;;;;;;;13.22;76.70508;95636.28;;;;
2019/06/29 02:58:16;;;;;;;6.5;5.45;;;;;;;13.22;76.70508;95636.28;;;;
2019/06/29 02:59:18;;;;;;;6.5;5.45;;;;;;;13.22;76.70508;95636.28;;;;
2019/06/29 03:00:19;;;;;;;6.5;5.45;;;;;;;13.22;76.70508;95636.28;;;;
2019/06/29 03:01:20;;;;;;;6.5;5.45;;;;;;;13.22;76.70508;95636.28;;;;
2019/06/29 03:02:21;;;;;;;6.5;5.45;;;;;;;13.22;76.70508;95636.28;;;;
2019/06/29 03:03:22;;;;;;;6.699999;5.349999;;;;;;;13.15;77.1543;95630.19;;;;
2019/06/29 03:04:23;;;;;;;6.699999;5.349999;;;;;;;13.15;77.1543;95630.19;;;;
2019/06/29 03:05:24;;;;;;;6.699999;5.349999;;;;;;;13.15;77.1543;95630.19;;;;
2019/06/29 03:06:25;;;;;;;6.699999;5.349999;;;;;;;13.15;77.1543;95630.19;;;;
2019/06/29 03:07:26;;;;;;;6.699999;5.349999;;;;;;;13.15;77.1543;95630.19;;;;
2019/06/29 03:08:27;;;;;;;6.699999;5.349999;;;;;;;13.15;77.1543;95630.19;;;;
2019/06/29 03:09:29;;;;;;;6.699999;5.349999;;;;;;;13.15;77.1543;95630.19;;;;
2019/06/29 03:10:30;;;;;;;6.699999;5.349999;;;;;;;13.15;77.1543;95630.19;;;;
2019/06/29 03:11:31;;;;;;;6.699999;5.349999;;;;;;;13.15;77.1543;95630.19;;;;
2019/06/29 03:12:32;;;;;;;6.699999;5.349999;;;;;;;13.15;77.1543;95630.19;;;;
2019/06/29 03:13:33;;;;;;;6.750001;5.900001;;;;;;;13.08;77.43359;95628.58;;;;
2019/06/29 03:14:34;;;;;;;6.750001;5.900001;;;;;;;13.08;77.43359;95628.58;;;;
2019/06/29 03:15:35;;;;;;;6.750001;5.900001;;;;;;;13.08;77.43359;95628.58;;;;
2019/06/29 03:16:36;;;;;;;6.750001;5.900001;;;;;;;13.08;77.43359;95628.58;;;;
2019/06/29 03:17:37;;;;;;;6.750001;5.900001;;;;;;;13.08;77.43359;95628.58;;;;
2019/06/29 03:18:38;;;;;;;6.750001;5.900001;;;;;;;13.08;77.43359;95628.58;;;;
2019/06/29 03:19:40;;;;;;;6.750001;5.900001;;;;;;;13.08;77.43359;95628.58;;;;
2019/06/29 03:20:41;;;;;;;6.750001;5.900001;;;;;;;13.08;77.43359;95628.58;;;;
2019/06/29 03:21:42;;;;;;;6.750001;5.900001;;;;;;;13.08;77.43359;95628.58;;;;
2019/06/29 03:22:43;;;;;;;6.750001;5.900001;;;;;;;13.08;77.43359;95628.58;;;;
2019/06/29 03:23:44;;;;;;;6.750001;5.900001;;;;;;;13.08;77.43359;95628.58;;;;
2019/06/29 03:24:45;;;;;;;7.65;5.55;;;;;;;13.11;77.62109;95626.34;;;;
2019/06/29 03:25:46;;;;;;;7.65;5.55;;;;;;;13.11;77.62109;95626.34;;;;
2019/06/29 03:26:47;;;;;;;7.65;5.55;;;;;;;13.11;77.62109;95626.34;;;;
2019/06/29 03:27:48;;;;;;;7.65;5.55;;;;;;;13.11;77.62109;95626.34;;;;
2019/06/29 03:28:49;;;;;;;7.65;5.55;;;;;;;13.11;77.62109;95626.34;;;;
2019/06/29 03:29:50;;;;;;;7.65;5.55;;;;;;;13.11;77.62109;95626.34;;;;
2019/06/29 03:30:51;;;;;;;7.65;5.55;;;;;;;13.11;77.62109;95626.34;;;;
2019/06/29 03:31:52;;;;;;;7.65;5.55;;;;;;;13.11;77.62109;95626.34;;;;
2019/06/29 03:32:54;;;;;;;7.65;5.55;;;;;;;13.11;77.62109;95626.34;;;;
2019/06/29 03:33:55;;;;;;;7.65;5.55;;;;;;;13.11;77.62109;95626.34;;;;
2019/06/29 03:34:56;;;;;;;6.500001;5.7;;;;;;;13.06;77.74121;95628.94;;;;
2019/06/29 03:35:57;;;;;;;6.500001;5.7;;;;;;;13.06;77.74121;95628.94;;;;
2019/06/29 03:36:58;;;;;;;6.500001;5.7;;;;;;;13.06;77.74121;95628.94;;;;
2019/06/29 03:37:59;;;;;;;6.500001;5.7;;;;;;;13.06;77.74121;95628.94;;;;
2019/06/29 03:39:00;;;;;;;6.500001;5.7;;;;;;;13.06;77.74121;95628.94;;;;
2019/06/29 03:40:01;;;;;;;6.500001;5.7;;;;;;;13.06;77.74121;95628.94;;;;
2019/06/29 03:41:03;;;;;;;6.500001;5.7;;;;;;;13.06;77.74121;95628.94;;;;
2019/06/29 03:42:04;;;;;;;6.500001;5.7;;;;;;;13.06;77.74121;95628.94;;;;
2019/06/29 03:43:05;;;;;;;6.500001;5.7;;;;;;;13.06;77.74121;95628.94;;;;
2019/06/29 03:44:06;;;;;;;6.500001;5.7;;;;;;;13.06;77.74121;95628.94;;;;
2019/06/29 03:45:08;;;;;;;7.6;6.15;;;;;;;13.1;77.83398;95631.87;;;;
2019/06/29 03:46:09;;;;;;;7.6;6.15;;;;;;;13.1;77.83398;95631.87;;;;
2019/06/29 03:47:10;;;;;;;7.6;6.15;;;;;;;13.1;77.83398;95631.87;;;;
2019/06/29 03:48:11;;;;;;;7.6;6.15;;;;;;;13.1;77.83398;95631.87;;;;
2019/06/29 03:49:12;;;;;;;7.6;6.15;;;;;;;13.1;77.83398;95631.87;;;;
2019/06/29 03:50:14;;;;;;;7.6;6.15;;;;;;;13.1;77.83398;95631.87;;;;
2019/06/29 03:51:18;;;;;;;7.6;6.15;;;;;;;13.1;77.83398;95631.87;;;;
2019/06/29 03:52:19;;;;;;;7.6;6.15;;;;;;;13.1;77.83398;95631.87;;;;
2019/06/29 03:53:20;;;;;;;7.6;6.15;;;;;;;13.1;77.83398;95631.87;;;;
2019/06/29 03:54:21;;;;;;;7.6;6.15;;;;;;;13.1;77.83398;95631.87;;;;
2019/06/29 03:55:22;;;;;;;7.6;6.15;;;;;;;13.1;77.83398;95631.87;;;;
2019/06/29 03:56:23;;;;;;;7.75;6.299999;;;;;;;13.06;77.95703;95624.06;;;;
2019/06/29 03:57:24;;;;;;;7.75;6.299999;;;;;;;13.06;77.95703;95624.06;;;;
2019/06/29 03:58:25;;;;;;;7.75;6.299999;;;;;;;13.06;77.95703;95624.06;;;;
2019/06/29 03:59:26;;;;;;;7.75;6.299999;;;;;;;13.06;77.95703;95624.06;;;;
2019/06/29 04:00:29;;;;;;;7.75;6.299999;;;;;;;13.06;77.95703;95624.06;;;;
2019/06/29 04:01:38;;;;;;;7.75;6.299999;;;;;;;13.06;77.95703;95624.06;;;;
2019/06/29 04:02:51;;;;;;;7.75;6.299999;;;;;;;13.06;77.95703;95624.06;;;;
2019/06/29 04:04:04;;;;;;;7.75;6.299999;;;;;;;13.06;77.95703;95624.06;;;;
2019/06/29 04:05:12;;;;;;;7.75;6.299999;;;;;;;13.06;77.95703;95624.06;;;;
2019/06/29 04:06:22;;;;;;;6.35;5.7;;;;;;;13.18;78.24512;95626.18;;;;
2019/06/29 04:07:39;;;;;;;6.35;5.7;;;;;;;13.18;78.24512;95626.18;;;;
2019/06/29 04:08:53;;;;;;;6.35;5.7;;;;;;;13.18;78.24512;95626.18;;;;
2019/06/29 04:10:01;;;;;;;6.35;5.7;;;;;;;13.18;78.24512;95626.18;;;;
2019/06/29 04:11:13;;;;;;;6.35;5.7;;;;;;;13.18;78.24512;95626.18;;;;
2019/06/29 04:12:23;;;;;;;6.35;5.7;;;;;;;13.18;78.24512;95626.18;;;;
2019/06/29 04:13:38;;;;;;;6.35;5.7;;;;;;;13.18;78.24512;95626.18;;;;
2019/06/29 04:15:02;;;;;;;6.35;5.7;;;;;;;13.18;78.24512;95626.18;;;;
2019/06/29 04:16:12;;;;;;;6.35;5.7;;;;;;;13.18;78.24512;95626.18;;;;
2019/06/29 04:17:28;;;;;;;7.85;6.2;;;;;;;13.31;78.34473;95621.81;;;;
2019/06/29 04:18:38;;;;;;;7.85;6.2;;;;;;;13.31;78.34473;95621.81;;;;
2019/06/29 04:20:23;;;;;;;7.85;6.2;;;;;;;13.31;78.34473;95621.81;;;;
2019/06/29 04:21:41;;;;;;;7.85;6.2;;;;;;;13.31;78.34473;95621.81;;;;
2019/06/29 04:22:45;;;;;;;7.85;6.2;;;;;;;13.31;78.34473;95621.81;;;;
2019/06/29 04:24:05;;;;;;;7.85;6.2;;;;;;;13.31;78.34473;95621.81;;;;
2019/06/29 04:25:32;;;;;;;7.85;6.2;;;;;;;13.31;78.34473;95621.81;;;;
2019/06/29 04:26:40;;;;;;;7.85;6.2;;;;;;;13.31;78.34473;95621.81;;;;
2019/06/29 04:28:05;;;;;;;7.5;6;;;;;;;13.55;78.51758;95626.01;;;;
2019/06/29 04:29:25;;;;;;;7.5;6;;;;;;;13.55;78.51758;95626.01;;;;
2019/06/29 04:30:44;;;;;;;7.5;6;;;;;;;13.55;78.51758;95626.01;;;;
2019/06/29 04:31:59;;;;;;;7.5;6;;;;;;;13.55;78.51758;95626.01;;;;
2019/06/29 04:35:21;;;;;;;7.5;6;;;;;;;13.55;78.51758;95626.01;;;;
2019/06/29 04:36:39;;;;;;;7.5;6;;;;;;;13.55;78.51758;95626.01;;;;
2019/06/29 04:37:59;;;;;;;7.5;6;;;;;;;13.55;78.51758;95626.01;;;;
2019/06/29 04:39:20;;;;;;;7.65;6.2;;;;;;;13.83;78.55664;95618.2;;;;
2019/06/29 04:40:49;;;;;;;7.65;6.2;;;;;;;13.83;78.55664;95618.2;;;;
2019/06/29 04:42:07;;;;;;;7.65;6.2;;;;;;;13.83;78.55664;95618.2;;;;
2019/06/29 04:43:19;;;;;;;7.65;6.2;;;;;;;13.83;78.55664;95618.2;;;;
2019/06/29 04:44:20;;;;;;;7.65;6.2;;;;;;;13.83;78.55664;95618.2;;;;
2019/06/29 04:45:21;;;;;;;7.65;6.2;;;;;;;13.83;78.55664;95618.2;;;;
2019/06/29 04:46:23;;;;;;;7.65;6.2;;;;;;;13.83;78.55664;95618.2;;;;
2019/06/29 04:47:24;;;;;;;7.65;6.2;;;;;;;13.83;78.55664;95618.2;;;;
2019/06/29 04:48:25;;;;;;;7.65;6.2;;;;;;;13.83;78.55664;95618.2;;;;
2019/06/29 04:49:26;;;;;;;6.849999;6;;;;;;;14.31;78.65137;95619.48;;;;
2019/06/29 04:50:27;;;;;;;6.849999;6;;;;;;;14.31;78.65137;95619.48;;;;
2019/06/29 04:51:28;;;;;;;6.849999;6;;;;;;;14.31;78.65137;95619.48;;;;
2019/06/29 04:52:29;;;;;;;6.849999;6;;;;;;;14.31;78.65137;95619.48;;;;
2019/06/29 04:53:31;;;;;;;6.849999;6;;;;;;;14.31;78.65137;95619.48;;;;
2019/06/29 04:54:32;;;;;;;6.849999;6;;;;;;;14.31;78.65137;95619.48;;;;
2019/06/29 04:55:33;;;;;;;6.849999;6;;;;;;;14.31;78.65137;95619.48;;;;
2019/06/29 04:56:34;;;;;;;6.849999;6;;;;;;;14.31;78.65137;95619.48;;;;
2019/06/29 04:57:35;;;;;;;6.849999;6;;;;;;;14.31;78.65137;95619.48;;;;
2019/06/29 04:58:37;;;;;;;6.849999;6;;;;;;;14.31;78.65137;95619.48;;;;
2019/06/29 04:59:40;;;;;;;8.1;5.05;;;;;;;14.8;78.3291;95622.58;;;;
2019/06/29 05:00:42;;;;;;;8.1;5.05;;;;;;;14.8;78.3291;95622.58;;;;
2019/06/29 05:01:45;;;;;;;8.1;5.05;;;;;;;14.8;78.3291;95622.58;;;;
2019/06/29 05:02:46;;;;;;;8.1;5.05;;;;;;;14.8;78.3291;95622.58;;;;
2019/06/29 05:03:47;;;;;;;8.1;5.05;;;;;;;14.8;78.3291;95622.58;;;;
2019/06/29 05:04:48;;;;;;;8.1;5.05;;;;;;;14.8;78.3291;95622.58;;;;
2019/06/29 05:05:49;;;;;;;8.1;5.05;;;;;;;14.8;78.3291;95622.58;;;;
2019/06/29 05:06:50;;;;;;;8.1;5.05;;;;;;;14.8;78.3291;95622.58;;;;
2019/06/29 05:07:51;;;;;;;8.1;5.05;;;;;;;14.8;78.3291;95622.58;;;;
2019/06/29 05:08:53;;;;;;;8.1;5.05;;;;;;;14.8;78.3291;95622.58;;;;
2019/06/29 05:09:54;;;;;;;8.1;5.05;;;;;;;14.8;78.3291;95622.58;;;;
2019/06/29 05:10:55;;;;;;;5.900001;5.149999;;;;;;;15.49;77.71777;95611.77;;;;
2019/06/29 05:11:56;;;;;;;5.900001;5.149999;;;;;;;15.49;77.71777;95611.77;;;;
2019/06/29 05:12:57;;;;;;;5.900001;5.149999;;;;;;;15.49;77.71777;95611.77;;;;
2019/06/29 05:13:58;;;;;;;5.900001;5.149999;;;;;;;15.49;77.71777;95611.77;;;;
2019/06/29 05:14:59;;;;;;;5.900001;5.149999;;;;;;;15.49;77.71777;95611.77;;;;
2019/06/29 05:16:00;;;;;;;5.900001;5.149999;;;;;;;15.49;77.71777;95611.77;;;;
2019/06/29 05:17:02;;;;;;;5.900001;5.149999;;;;;;;15.49;77.71777;95611.77;;;;
2019/06/29 05:18:03;;;;;;;5.900001;5.149999;;;;;;;15.49;77.71777;95611.77;;;;
2019/06/29 05:19:04;;;;;;;5.900001;5.149999;;;;;;;15.49;77.71777;95611.77;;;;
2019/06/29 05:20:05;;;;;;;5.900001;5.149999;;;;;;;15.49;77.71777;95611.77;;;;
2019/06/29 05:21:06;;;;;;;7.649999;5.3;;;;;;;16.16;77.06445;95598.83;;;;
2019/06/29 05:22:08;;;;;;;7.649999;5.3;;;;;;;16.16;77.06445;95598.83;;;;
2019/06/29 05:23:09;;;;;;;7.649999;5.3;;;;;;;16.16;77.06445;95598.83;;;;
2019/06/29 05:24:10;;;;;;;7.649999;5.3;;;;;;;16.16;77.06445;95598.83;;;;
2019/06/29 05:25:11;;;;;;;7.649999;5.3;;;;;;;16.16;77.06445;95598.83;;;;
2019/06/29 05:26:12;;;;;;;7.649999;5.3;;;;;;;16.16;77.06445;95598.83;;;;
2019/06/29 05:27:13;;;;;;;7.649999;5.3;;;;;;;16.16;77.06445;95598.83;;;;
2019/06/29 05:28:14;;;;;;;7.649999;5.3;;;;;;;16.16;77.06445;95598.83;;;;
2019/06/29 05:29:16;;;;;;;7.649999;5.3;;;;;;;16.16;77.06445;95598.83;;;;
2019/06/29 05:30:17;;;;;;;7.649999;5.3;;;;;;;16.16;77.06445;95598.83;;;;
2019/06/29 05:31:18;;;;;;;6.1;5;;;;;;;16.85;76.3291;95598.55;;;;
2019/06/29 05:32:19;;;;;;;6.1;5;;;;;;;16.85;76.3291;95598.55;;;;
2019/06/29 05:33:20;;;;;;;6.1;5;;;;;;;16.85;76.3291;95598.55;;;;
2019/06/29 05:34:21;;;;;;;6.1;5;;;;;;;16.85;76.3291;95598.55;;;;
2019/06/29 05:35:23;;;;;;;6.1;5;;;;;;;16.85;76.3291;95598.55;;;;
2019/06/29 05:36:24;;;;;;;6.1;5;;;;;;;16.85;76.3291;95598.55;;;;
2019/06/29 05:37:25;;;;;;;6.1;5;;;;;;;16.85;76.3291;95598.55;;;;
2019/06/29 05:38:26;;;;;;;6.1;5;;;;;;;16.85;76.3291;95598.55;;;;
2019/06/29 05:39:27;;;;;;;6.1;5;;;;;;;16.85;76.3291;95598.55;;;;
2019/06/29 05:40:28;;;;;;;6.1;5;;;;;;;16.85;76.3291;95598.55;;;;
2019/06/29 05:41:29;;;;;;;6.1;5;;;;;;;16.85;76.3291;95598.55;;;;
2019/06/29 05:42:30;;;;;;;6.05;4.85;;;;;;;17.41;75.43652;95595.84;;;;
2019/06/29 05:43:31;;;;;;;6.05;4.85;;;;;;;17.41;75.43652;95595.84;;;;
2019/06/29 05:44:33;;;;;;;6.05;4.85;;;;;;;17.41;75.43652;95595.84;;;;
2019/06/29 05:45:34;;;;;;;6.05;4.85;;;;;;;17.41;75.43652;95595.84;;;;
2019/06/29 05:46:35;;;;;;;6.05;4.85;;;;;;;17.41;75.43652;95595.84;;;;
2019/06/29 05:47:36;;;;;;;6.05;4.85;;;;;;;17.41;75.43652;95595.84;;;;
2019/06/29 05:48:37;;;;;;;6.05;4.85;;;;;;;17.41;75.43652;95595.84;;;;